createdAt,value
2023-04-15T00:02:39.779Z,9.60
2023-04-15T00:05:31.740Z,9.67
2023-04-15T00:08:21.529Z,9.60
2023-04-15T00:11:10.894Z,9.63
2023-04-15T00:14:00.746Z,9.33
2023-04-15T00:16:55.567Z,9.30
2023-04-15T00:19:45.903Z,9.60
2023-04-15T00:22:36.547Z,9.20
2023-04-15T00:25:25.882Z,9.50
2023-04-15T00:28:15.237Z,9.50
2023-04-15T00:31:05.736Z,9.43
2023-04-15T00:33:55.463Z,9.20
2023-04-15T00:36:44.925Z,9.40
2023-04-15T00:39:36.237Z,10.63
2023-04-15T00:42:26.998Z,9.40
2023-04-15T00:45:17.000Z,9.40
2023-04-15T00:48:07.262Z,9.27
2023-04-15T00:50:56.867Z,9.30
2023-04-15T00:53:46.346Z,9.20
2023-04-15T00:56:39.723Z,9.30
2023-04-15T00:59:30.048Z,9.30
2023-04-15T01:02:19.732Z,9.40
2023-04-15T01:05:09.780Z,9.30
2023-04-15T01:07:59.480Z,9.00
2023-04-15T01:10:48.961Z,9.10
2023-04-15T01:13:40.067Z,9.00
2023-04-15T01:16:29.741Z,9.00
2023-04-15T01:19:19.162Z,9.10
2023-04-15T01:22:08.533Z,9.10
2023-04-15T01:25:08.233Z,9.20
2023-04-15T01:27:59.152Z,9.17
2023-04-15T01:30:48.456Z,9.30
2023-04-15T01:33:38.056Z,9.23
2023-04-15T01:36:27.949Z,9.20
2023-04-15T01:39:17.289Z,9.43
2023-04-15T01:42:06.967Z,9.20
2023-04-15T01:44:57.788Z,9.30
2023-04-15T01:47:47.159Z,9.10
2023-04-15T01:50:36.942Z,8.80
2023-04-15T01:53:26.713Z,9.10
2023-04-15T01:56:16.967Z,9.40
2023-04-15T01:59:06.569Z,9.20
2023-04-15T02:01:57.517Z,9.00
2023-04-15T02:04:46.882Z,9.10
2023-04-15T02:07:36.828Z,8.97
2023-04-15T02:10:26.246Z,9.43
2023-04-15T02:13:17.029Z,9.10
2023-04-15T02:16:16.910Z,9.20
2023-04-15T02:19:08.939Z,9.10
2023-04-15T02:22:00.258Z,9.00
2023-04-15T02:24:49.740Z,9.00
2023-04-15T02:27:39.254Z,8.90
2023-04-15T02:30:28.630Z,9.20
2023-04-15T02:33:18.100Z,9.60
2023-04-15T02:36:10.109Z,9.20
2023-04-15T02:38:59.991Z,9.30
2023-04-15T02:41:52.569Z,9.10
2023-04-15T02:44:41.889Z,9.00
2023-04-15T02:47:31.247Z,9.30
2023-04-15T02:50:20.987Z,8.83
2023-04-15T02:53:11.736Z,9.20
2023-04-15T02:56:01.315Z,9.30
2023-04-15T02:58:50.849Z,8.93
2023-04-15T03:01:40.473Z,9.30
2023-04-15T03:04:30.871Z,9.07
2023-04-15T03:07:21.136Z,8.90
2023-04-15T03:10:12.402Z,9.60
2023-04-15T03:13:02.193Z,9.00
2023-04-15T03:15:52.026Z,9.30
2023-04-15T03:18:42.315Z,9.00
2023-04-15T03:21:31.851Z,9.03
2023-04-15T03:24:22.275Z,9.00
2023-04-15T03:27:13.280Z,9.50
2023-04-15T03:30:02.671Z,9.10
2023-04-15T03:32:54.885Z,9.13
2023-04-15T03:35:44.228Z,9.17
2023-04-15T03:38:33.501Z,9.00
2023-04-15T03:41:22.847Z,9.30
2023-04-15T03:44:13.449Z,9.10
2023-04-15T03:47:02.824Z,9.50
2023-04-15T03:49:52.122Z,8.87
2023-04-15T03:52:41.418Z,9.10
2023-04-15T03:55:30.698Z,8.93
2023-04-15T03:58:20.025Z,9.20
2023-04-15T04:01:10.753Z,9.20
2023-04-15T04:04:00.153Z,9.20
2023-04-15T04:06:49.568Z,9.03
2023-04-15T04:09:40.615Z,9.20
2023-04-15T04:12:29.870Z,9.40
2023-04-15T04:15:19.370Z,9.30
2023-04-15T04:18:10.076Z,9.10
2023-04-15T04:20:59.554Z,9.30
2023-04-15T04:23:48.962Z,9.30
2023-04-15T04:26:38.256Z,9.20
2023-04-15T04:29:27.540Z,9.20
2023-04-15T04:32:16.981Z,9.20
2023-04-15T04:35:08.698Z,9.30
2023-04-15T04:37:58.002Z,9.30
2023-04-15T04:40:47.338Z,9.20
2023-04-15T04:43:36.599Z,9.20
2023-04-15T04:46:25.855Z,9.10
2023-04-15T04:49:15.523Z,9.20
2023-04-15T04:52:06.500Z,9.30
2023-04-15T04:54:55.783Z,9.07
2023-04-15T04:57:45.290Z,9.77
2023-04-15T05:00:34.584Z,9.17
2023-04-15T05:03:24.144Z,9.37
2023-04-15T05:06:13.565Z,9.10
2023-04-15T05:09:04.512Z,9.13
2023-04-15T05:11:53.968Z,9.30
2023-04-15T05:14:43.456Z,8.90
2023-04-15T05:17:35.203Z,8.90
2023-04-15T05:20:24.620Z,9.10
2023-04-15T05:23:13.948Z,9.67
2023-04-15T05:26:04.791Z,9.30
2023-04-15T05:28:54.278Z,9.20
2023-04-15T05:31:44.190Z,9.37
2023-04-15T05:34:33.522Z,9.13
2023-04-15T05:37:22.812Z,9.20
2023-04-15T05:40:12.810Z,9.10
2023-04-15T05:43:03.481Z,9.00
2023-04-15T05:45:52.858Z,9.43
2023-04-15T05:48:42.227Z,9.00
2023-04-15T05:51:31.749Z,9.07
2023-04-15T05:54:22.011Z,9.47
2023-04-15T05:57:11.722Z,9.30
2023-04-15T06:00:02.350Z,9.40
2023-04-15T06:03:12.487Z,10.07
2023-04-15T06:06:02.566Z,9.33
2023-04-15T06:08:52.201Z,9.10
2023-04-15T06:11:42.053Z,9.10
2023-04-15T06:14:31.423Z,9.20
2023-04-15T06:17:22.130Z,8.97
2023-04-15T06:20:13.241Z,9.57
2023-04-15T06:23:02.552Z,9.20
2023-04-15T06:25:51.918Z,9.10
2023-04-15T06:28:41.262Z,9.40
2023-04-15T06:31:30.621Z,9.23
2023-04-15T06:34:21.651Z,10.60
2023-04-15T06:37:15.805Z,10.00
2023-04-15T06:40:05.891Z,9.57
2023-04-15T06:42:55.170Z,9.80
2023-04-15T06:45:44.665Z,9.50
2023-04-15T06:48:34.016Z,9.33
2023-04-15T06:51:26.629Z,9.50
2023-04-15T06:54:16.196Z,9.10
2023-04-15T06:57:05.864Z,9.60
2023-04-15T06:59:55.501Z,9.30
2023-04-15T07:02:45.691Z,9.60
2023-04-15T07:05:35.022Z,9.20
2023-04-15T07:08:25.681Z,9.53
2023-04-15T07:11:15.123Z,9.37
2023-04-15T07:14:04.479Z,9.37
2023-04-15T07:16:53.754Z,9.50
2023-04-15T07:19:43.118Z,9.30
2023-04-15T07:22:32.490Z,9.10
2023-04-15T07:25:23.484Z,9.20
2023-04-15T07:28:12.837Z,9.10
2023-04-15T07:31:02.201Z,9.47
2023-04-15T07:33:51.605Z,9.00
2023-04-15T07:36:41.559Z,9.03
2023-04-15T07:39:31.171Z,9.20
2023-04-15T07:42:22.075Z,8.73
2023-04-15T07:45:12.828Z,9.10
2023-04-15T07:48:02.313Z,9.00
2023-04-15T07:50:51.729Z,8.80
2023-04-15T07:53:41.025Z,8.90
2023-04-15T07:56:30.401Z,8.97
2023-04-15T07:59:21.562Z,8.80
2023-04-15T08:02:12.296Z,9.00
2023-04-15T08:05:04.440Z,9.00
2023-04-15T08:07:53.994Z,8.80
2023-04-15T08:10:43.786Z,9.10
2023-04-15T08:13:33.048Z,9.13
2023-04-15T08:16:27.534Z,9.23
2023-04-15T08:19:17.329Z,9.03
2023-04-15T08:22:06.614Z,9.10
2023-04-15T08:25:00.525Z,9.10
2023-04-15T08:27:49.967Z,8.87
2023-04-15T08:30:39.274Z,9.47
2023-04-15T08:33:30.084Z,9.20
2023-04-15T08:36:19.406Z,8.90
2023-04-15T08:39:08.865Z,9.00
2023-04-15T08:42:02.755Z,9.00
2023-04-15T08:44:52.966Z,9.00
2023-04-15T08:47:43.148Z,9.03
2023-04-15T08:50:34.326Z,8.90
2023-04-15T08:53:23.796Z,9.40
2023-04-15T08:56:15.764Z,9.40
2023-04-15T08:59:05.518Z,9.10
2023-04-15T09:01:56.655Z,8.90
2023-04-15T09:04:46.028Z,9.00
2023-04-15T09:07:37.087Z,8.97
2023-04-15T09:10:26.481Z,9.03
2023-04-15T09:13:15.992Z,9.40
2023-04-15T09:16:08.373Z,8.80
2023-04-15T09:18:57.934Z,9.00
2023-04-15T09:21:49.596Z,8.87
2023-04-15T09:24:43.360Z,8.93
2023-04-15T09:27:32.636Z,9.00
2023-04-15T09:30:22.367Z,8.70
2023-04-15T09:33:12.130Z,9.03
2023-04-15T09:36:05.781Z,8.90
2023-04-15T09:38:58.284Z,9.10
2023-04-15T09:41:49.063Z,9.03
2023-04-15T09:44:38.880Z,8.90
2023-04-15T09:47:31.447Z,10.03
2023-04-15T09:50:21.918Z,9.27
2023-04-15T09:53:11.891Z,9.20
2023-04-15T09:56:02.661Z,9.70
2023-04-15T09:58:58.508Z,9.20
2023-04-15T10:01:48.415Z,9.10
2023-04-15T10:04:42.099Z,9.27
2023-04-15T10:07:32.044Z,8.80
2023-04-15T10:10:21.862Z,9.20
2023-04-15T10:13:11.355Z,9.00
2023-04-15T10:16:07.787Z,8.80
2023-04-15T10:18:58.723Z,9.33
2023-04-15T10:21:48.596Z,8.40
2023-04-15T10:24:40.282Z,9.10
2023-04-15T10:27:30.020Z,28.10
2023-04-15T10:30:19.789Z,17.13
2023-04-15T10:33:11.410Z,14.07
2023-04-15T10:36:01.998Z,12.70
2023-04-15T10:38:51.416Z,11.20
2023-04-15T10:41:40.731Z,10.57
2023-04-15T10:44:30.036Z,10.00
2023-04-15T10:47:22.892Z,9.77
2023-04-15T10:50:15.060Z,9.60
2023-04-15T10:53:05.733Z,9.30
2023-04-15T10:55:55.137Z,9.30
2023-04-15T10:58:45.573Z,9.40
2023-04-15T11:02:00.220Z,9.50
2023-04-15T11:04:58.466Z,9.10
2023-04-15T11:07:55.749Z,8.93
2023-04-15T11:10:55.482Z,9.47
2023-04-15T11:13:50.278Z,8.97
2023-04-15T11:16:44.922Z,9.30
2023-04-15T11:19:38.914Z,9.30
2023-04-15T11:22:28.215Z,9.37
2023-04-15T11:25:26.046Z,9.33
2023-04-15T11:28:15.564Z,9.40
2023-04-15T11:31:11.769Z,9.00
2023-04-15T11:34:02.863Z,9.63
2023-04-15T11:36:52.797Z,9.33
2023-04-15T11:39:43.161Z,9.30
2023-04-15T11:42:48.658Z,9.50
2023-04-15T11:45:40.972Z,9.60
2023-04-15T11:48:32.506Z,9.50
2023-04-15T11:51:22.727Z,9.80
2023-04-15T11:54:20.774Z,9.67
2023-04-15T11:57:10.153Z,9.43
2023-04-15T12:00:00.895Z,9.90
2023-04-15T12:02:50.310Z,10.20
2023-04-15T12:06:12.810Z,10.10
2023-04-15T12:09:09.453Z,10.20
2023-04-15T12:11:59.435Z,9.73
2023-04-15T12:14:48.953Z,9.90
2023-04-15T12:17:50.976Z,10.00
2023-04-15T12:20:46.215Z,10.00
2023-04-15T12:23:41.415Z,9.97
2023-04-15T12:26:33.029Z,10.17
2023-04-15T12:29:29.896Z,10.30
2023-04-15T12:32:21.963Z,10.00
2023-04-15T12:35:11.422Z,10.50
2023-04-15T12:38:00.719Z,10.50
2023-04-15T12:40:51.506Z,10.73
2023-04-15T12:43:40.957Z,10.20
2023-04-15T12:46:30.639Z,10.23
2023-04-15T12:49:20.960Z,10.33
2023-04-15T12:52:10.646Z,10.50
2023-04-15T12:55:00.370Z,10.03
2023-04-15T12:57:51.091Z,10.10
2023-04-15T13:00:40.707Z,10.50
2023-04-15T13:03:30.370Z,10.73
2023-04-15T13:06:19.846Z,10.40
2023-04-15T13:09:09.222Z,10.57
2023-04-15T13:11:58.522Z,10.20
2023-04-15T13:14:49.255Z,10.30
2023-04-15T13:17:40.064Z,10.60
2023-04-15T13:20:29.870Z,10.00
2023-04-15T13:23:19.226Z,10.17
2023-04-15T13:26:08.601Z,10.40
2023-04-15T13:28:57.931Z,10.97
2023-04-15T13:31:48.566Z,10.63
2023-04-15T13:34:39.120Z,11.30
2023-04-15T13:37:29.095Z,10.70
2023-04-15T13:40:18.572Z,10.90
2023-04-15T13:43:07.941Z,11.20
2023-04-15T13:45:57.415Z,10.90
2023-04-15T13:48:48.154Z,11.30
2023-04-15T13:51:37.638Z,11.40
2023-04-15T13:54:37.791Z,11.50
2023-04-15T13:57:27.780Z,11.63
2023-04-15T14:00:17.889Z,11.40
2023-04-15T14:03:07.330Z,11.83
2023-04-15T14:05:58.486Z,11.90
2023-04-15T14:08:47.831Z,12.23
2023-04-15T14:11:37.186Z,11.30
2023-04-15T14:14:26.607Z,11.60
2023-04-15T14:17:16.014Z,12.23
2023-04-15T14:20:08.914Z,12.23
2023-04-15T14:22:59.685Z,12.40
2023-04-15T14:25:49.191Z,12.20
2023-04-15T14:28:39.134Z,12.40
2023-04-15T14:31:28.603Z,11.90
2023-04-15T14:34:18.097Z,11.63
2023-04-15T14:37:07.573Z,12.03
2023-04-15T14:39:58.304Z,12.60
2023-04-15T14:42:48.068Z,12.40
2023-04-15T14:45:40.530Z,12.97
2023-04-15T14:48:33.470Z,12.13
2023-04-15T14:51:24.192Z,13.30
2023-04-15T14:54:13.495Z,12.83
2023-04-15T14:57:04.189Z,12.77
2023-04-15T14:59:56.698Z,12.83
2023-04-15T15:02:47.492Z,12.87
2023-04-15T15:05:37.161Z,12.67
2023-04-15T15:08:27.193Z,12.53
2023-04-15T15:11:17.356Z,13.37
2023-04-15T15:14:08.124Z,12.43
2023-04-15T15:16:57.525Z,12.33
2023-04-15T15:19:46.978Z,12.30
2023-04-15T15:22:36.218Z,12.70
2023-04-15T15:25:25.712Z,12.87
2023-04-15T15:28:15.080Z,12.67
2023-04-15T15:31:06.148Z,12.80
2023-04-15T15:33:55.561Z,12.30
2023-04-15T15:36:44.960Z,12.50
2023-04-15T15:39:36.545Z,11.43
2023-04-15T15:42:26.199Z,12.40
2023-04-15T15:45:15.690Z,12.17
2023-04-15T15:48:07.798Z,12.57
2023-04-15T15:50:57.204Z,12.20
2023-04-15T15:53:46.564Z,11.63
2023-04-15T15:56:38.444Z,12.27
2023-04-15T15:59:27.789Z,12.10
2023-04-15T16:02:18.625Z,12.50
2023-04-15T16:05:09.879Z,12.40
2023-04-15T16:07:59.280Z,12.83
2023-04-15T16:10:48.755Z,12.43
2023-04-15T16:13:38.235Z,12.77
2023-04-15T16:16:27.663Z,12.30
2023-04-15T16:19:17.396Z,12.50
2023-04-15T16:22:08.331Z,12.07
2023-04-15T16:24:57.647Z,12.10
2023-04-15T16:27:59.408Z,12.33
2023-04-15T16:30:56.250Z,11.93
2023-04-15T16:33:45.651Z,12.40
2023-04-15T16:36:36.010Z,11.90
2023-04-15T16:39:27.042Z,12.90
2023-04-15T16:42:16.440Z,12.10
2023-04-15T16:45:07.083Z,12.23
2023-04-15T16:47:57.035Z,12.53
2023-04-15T16:50:47.963Z,12.70
2023-04-15T16:53:37.314Z,12.77
2023-04-15T16:56:29.368Z,11.97
2023-04-15T16:59:18.810Z,12.10
2023-04-15T17:02:11.544Z,12.50
2023-04-15T17:05:00.943Z,12.07
2023-04-15T17:07:50.276Z,12.27
2023-04-15T17:10:39.692Z,12.27
2023-04-15T17:13:30.794Z,12.53
2023-04-15T17:16:20.279Z,12.17
2023-04-15T17:19:09.719Z,12.20
2023-04-15T17:21:59.120Z,12.53
2023-04-15T17:24:48.398Z,12.60
2023-04-15T17:27:38.651Z,12.60
2023-04-15T17:30:29.375Z,12.77
2023-04-15T17:33:55.708Z,12.77
2023-04-15T17:36:28.251Z,13.23
2023-04-15T17:39:17.550Z,13.23
2023-04-15T17:42:06.935Z,12.77
2023-04-15T17:44:56.292Z,12.70
2023-04-15T17:47:47.101Z,13.30
2023-04-15T17:50:38.455Z,12.40
2023-04-15T17:53:27.900Z,12.20
2023-04-15T17:56:17.239Z,14.80
2023-04-15T17:59:07.059Z,13.00
2023-04-15T18:01:56.531Z,12.33
2023-04-15T18:04:47.440Z,13.53
2023-04-15T18:07:37.422Z,13.23
2023-04-15T18:10:26.839Z,12.87
2023-04-15T18:13:16.235Z,12.93
2023-04-15T18:16:06.864Z,13.37
2023-04-15T18:18:56.395Z,13.07
2023-04-15T18:21:47.533Z,12.63
2023-04-15T18:24:36.977Z,14.23
2023-04-15T18:27:26.393Z,13.50
2023-04-15T18:30:15.813Z,14.53
2023-04-15T18:33:05.420Z,14.50
2023-04-15T18:35:55.668Z,14.47
2023-04-15T18:38:48.704Z,15.93
2023-04-15T18:41:38.130Z,14.20
2023-04-15T18:44:28.442Z,14.80
2023-04-15T18:47:18.523Z,13.80
2023-04-15T18:50:09.551Z,13.80
2023-04-15T18:52:58.874Z,13.83
2023-04-15T18:55:49.638Z,14.93
2023-04-15T18:59:09.927Z,15.40
2023-04-15T19:01:49.339Z,14.97
2023-04-15T19:04:38.788Z,14.83
2023-04-15T19:07:28.225Z,14.73
2023-04-15T19:10:17.662Z,15.17
2023-04-15T19:13:08.356Z,14.30
2023-04-15T19:15:57.681Z,14.20
2023-04-15T19:18:47.127Z,14.00
2023-04-15T19:21:36.748Z,13.40
2023-04-15T19:24:26.062Z,14.37
2023-04-15T19:27:15.656Z,14.57
2023-04-15T19:30:08.914Z,14.50
2023-04-15T19:32:58.299Z,15.57
2023-04-15T19:35:49.898Z,14.57
2023-04-15T19:38:39.499Z,14.97
2023-04-15T19:41:28.893Z,15.13
2023-04-15T19:44:18.542Z,14.30
2023-04-15T19:47:09.524Z,15.27
2023-04-15T19:49:58.863Z,15.00
2023-04-15T19:52:48.221Z,15.23
2023-04-15T19:55:37.904Z,14.97
2023-04-15T19:58:27.204Z,17.20
2023-04-15T20:01:16.586Z,14.53
2023-04-15T20:04:08.092Z,15.97
2023-04-15T20:06:57.755Z,14.90
2023-04-15T20:09:47.203Z,15.20
2023-04-15T20:12:50.007Z,15.23
2023-04-15T20:15:41.845Z,15.53
2023-04-15T20:18:31.151Z,16.43
2023-04-15T20:21:21.944Z,16.50
2023-04-15T20:24:11.378Z,15.10
2023-04-15T20:27:00.719Z,15.43
2023-04-15T20:29:50.455Z,15.70
2023-04-15T20:32:39.967Z,16.00
2023-04-15T20:35:31.047Z,15.70
2023-04-15T20:38:22.224Z,16.27
2023-04-15T20:41:11.600Z,15.73
2023-04-15T20:44:00.972Z,16.07
2023-04-15T20:46:50.557Z,15.80
2023-04-15T20:49:41.182Z,15.20
2023-04-15T20:52:30.694Z,17.07
2023-04-15T20:55:21.671Z,19.47
2023-04-15T20:58:11.197Z,14.63
2023-04-15T21:01:02.121Z,15.80
2023-04-15T21:03:51.667Z,14.30
2023-04-15T21:06:41.152Z,15.37
2023-04-15T21:09:30.452Z,14.73
2023-04-15T21:12:21.433Z,14.10
2023-04-15T21:15:11.986Z,14.27
2023-04-15T21:18:01.336Z,15.00
2023-04-15T21:20:58.014Z,15.73
2023-04-15T21:23:47.397Z,14.43
2023-04-15T21:26:37.003Z,16.07
2023-04-15T21:29:27.687Z,15.57
2023-04-15T21:32:17.142Z,15.27
2023-04-15T21:35:08.076Z,14.20
2023-04-15T21:37:57.478Z,15.57
2023-04-15T21:40:46.955Z,14.27
2023-04-15T21:43:36.424Z,15.67
2023-04-15T21:46:33.040Z,14.93
2023-04-15T21:49:25.564Z,14.63
2023-04-15T21:52:15.373Z,14.00
2023-04-15T21:55:05.030Z,14.80
2023-04-15T21:57:54.361Z,14.00
2023-04-15T22:00:43.756Z,16.07
2023-04-15T22:03:35.916Z,14.10
2023-04-15T22:06:25.450Z,15.43
2023-04-15T22:09:14.790Z,14.90
2023-04-15T22:12:06.420Z,15.80
2023-04-15T22:14:57.228Z,14.33
2023-04-15T22:17:47.149Z,14.13
2023-04-15T22:20:37.899Z,14.90
2023-04-15T22:23:27.236Z,14.97
2023-04-15T22:26:16.701Z,15.63
2023-04-15T22:29:06.424Z,14.53
2023-04-15T22:31:56.031Z,14.23
2023-04-15T22:34:45.343Z,14.50
2023-04-15T22:37:36.389Z,14.10
2023-04-15T22:40:25.699Z,13.53
2023-04-15T22:43:15.073Z,13.90
2023-04-15T22:46:04.450Z,13.70
2023-04-15T22:48:54.176Z,14.20
2023-04-15T22:51:43.476Z,14.27
2023-04-15T22:54:34.235Z,13.80
2023-04-15T22:57:23.546Z,13.73
2023-04-15T23:00:14.101Z,13.10
2023-04-15T23:03:03.545Z,15.13
2023-04-15T23:05:52.942Z,13.40
2023-04-15T23:08:42.300Z,13.90
2023-04-15T23:11:33.000Z,14.17
2023-04-15T23:14:22.348Z,14.17
2023-04-15T23:17:11.705Z,14.17
2023-04-15T23:20:01.016Z,13.73
2023-04-15T23:22:50.353Z,14.00
2023-04-15T23:25:39.650Z,14.43
2023-04-15T23:28:30.389Z,14.50
2023-04-15T23:31:19.777Z,13.93
2023-04-15T23:34:09.553Z,14.20
2023-04-15T23:36:58.883Z,13.93
2023-04-15T23:39:48.218Z,14.03
2023-04-15T23:42:37.521Z,13.90
2023-04-15T23:45:28.317Z,14.20
2023-04-15T23:48:18.156Z,14.30
2023-04-15T23:51:07.549Z,14.20
2023-04-15T23:53:56.933Z,14.23
2023-04-15T23:56:46.328Z,14.00
2023-04-15T23:59:36.022Z,14.07
